• Join FlightAware (Why Join?)
  • Login
  • US Flag 
02:00AM EDT


 

Airport Tracker/Info


-or-


 

Live Flight TrackerFlight Track Log ✈ UAE28 ✈ 10-May-2013 ✈ EGPF / GLA - OMDB / DXB

Flight Track Log - Related Links

Times and Time Zones

All times are in EDT time to prevent confusion due to time zone crossing. See the UAE28 flight status page for this flight to view local times or setup timezone preferences in your user account.

Time Position Orientation Groundspeed Altitude Reporting Facility
EDT Latitude Longitude Course Direction KTS MPH feet Rate Location/Type
09:44AM 55.8535 -4.4674 226° Southwest 178 205 300  Level FlightAware UK
09:45AM 55.8412 -4.4901 226° Southwest 186 214 1,200 4,980 Climbing FlightAware UK
09:45AM 55.8410 -4.4900 226° Southwest 163 188 2,800 2,700 Climbing FlightAware
09:45AM 55.8279 -4.5133 226° Southwest 192 221 2,300 2,760 Descending FlightAware UK
09:45AM 55.8240 -4.5200 226° Southwest 166 191 4,200 2,460 Climbing FlightAware
09:46AM 55.8083 -4.5479 226° Southwest 196 226 3,800 2,640 Descending FlightAware UK
09:46AM 55.8100 -4.5460 226° Southwest 165 190 5,300 2,280 Climbing FlightAware
09:46AM 55.7984 -4.5650 226° Southwest 196 226 4,500 2,100 Descending FlightAware UK
09:46AM 55.7980 -4.5650 226° Southwest 170 196 6,000 1,380 Climbing FlightAware
09:46AM 55.7758 -4.5776 226° Southwest 202 232 5,200  Descending FlightAware UK
09:47AM 55.7624 -4.5580 140° Southeast 204 235 6,000 1,800 Climbing FlightAware UK
09:47AM 55.7581 -4.5250 103° East 216 249 6,300 1,140 Climbing FlightAware UK
09:47AM 55.7590 -4.4853 87° East 238 274 6,700 1,320 Climbing FlightAware UK
09:48AM 55.7608 -4.4420 86° East 270 311 7,100 1,980 Climbing FlightAware UK
09:48AM 55.7639 -4.3812 85° East 286 329 8,100 3,000 Climbing FlightAware UK
09:49AM 55.7682 -4.3039 84° East 290 334 9,800 3,180 Climbing FlightAware UK
09:49AM 55.7716 -4.2404 85° East 298 343 11,000 5,340 Climbing FlightAware UK
09:49AM 55.7730 -4.2100 85° East 328 377 13,100 2,760 Climbing FlightAware
09:49AM 55.7756 -4.1595 85° East 304 350 12,400 -360 Descending FlightAware UK
09:50AM 55.7780 -4.1089 85° East 322 371 12,900 3,960 Climbing FlightAware UK
09:50AM 55.7790 -4.0820 85° East 364 419 14,600 960 Climbing FlightAware
09:50AM 55.7806 -4.0550 85° East 342 394 13,200 -4,440 Descending FlightAware UK
09:50AM 55.7824 -4.0172 85° East 354 407 13,500 1,380 Climbing FlightAware UK
09:51AM 55.7854 -3.9585 85° East 374 430 13,900 3,720 Climbing FlightAware UK
09:51AM 55.7870 -3.9210 85° East 418 481 15,700 1,800 Climbing FlightAware
09:51AM 55.7912 -3.8339 85° East 402 463 15,000 300 Descending FlightAware UK
09:51AM 55.7942 -3.7692 85° East 408 470 15,900 6,540 Climbing FlightAware UK
09:51AM 55.7940 -3.7790 85° East 435 501 17,300 2,640 Climbing FlightAware
09:52AM 55.7972 -3.7047 85° East 408 470 16,700 180 Descending FlightAware UK
09:52AM 55.8002 -3.6403 85° East 414 476 17,400 5,700 Climbing FlightAware UK
09:52AM 55.8000 -3.6360 85° East 447 514 19,000 1,740 Climbing FlightAware
09:53AM 55.8061 -3.5054 85° East 420 483 18,500 1,860 Descending FlightAware UK
09:53AM 55.8080 -3.4680 85° East 468 539 20,400 3,780 Climbing FlightAware
09:54AM 55.8150 -3.3110 85° East 478 550 22,000 900 Climbing FlightAware
09:54AM 55.8182 -3.2252 85° East 440 506 21,300 2,220 Descending FlightAware UK
09:54AM 55.8210 -3.1360 85° East 487 560 23,700 2,100 Climbing FlightAware
09:55AM 55.8168 -3.0091 85° East 452 520 23,200 2,100 Descending FlightAware UK
09:55AM 55.8150 -2.9710 85° East 496 571 25,100 1,800 Climbing FlightAware
09:55AM 55.8106 -2.8868 85° East 456 525 24,100 -720 Descending FlightAware UK
09:56AM 55.8069 -2.8130 95° East 460 529 24,700 5,460 Climbing FlightAware UK
09:56AM 55.8070 -2.8090 95° East 505 581 26,300 1,740 Climbing FlightAware
09:56AM 55.8017 -2.7132 95° East 464 534 25,400 -840 Descending FlightAware UK
09:56AM 55.7977 -2.6369 95° East 470 541 25,800 4,620 Climbing FlightAware UK
09:56AM 55.7970 -2.6250 95° East 516 594 27,500 1,800 Climbing FlightAware
09:57AM 55.7914 -2.5099 95° East 474 545 26,700 -480 Descending FlightAware UK
09:57AM 55.7878 -2.4328 95° East 478 550 27,200 6,000 Climbing FlightAware UK
09:57AM 55.7890 -2.4490 95° East 525 604 28,600 1,320 Climbing FlightAware
09:57AM 55.7844 -2.3550 95° East 482 555 27,600 -900 Descending FlightAware UK
09:58AM 55.7807 -2.2753 95° East 484 557 28,100 4,680 Climbing FlightAware UK
09:58AM 55.7800 -2.2490 95° East 535 616 29,800 1,920 Climbing FlightAware
09:59AM 55.7753 -1.9613 95° East 488 562 30,500 1,020 Climbing FlightAware UK
09:59AM 55.7778 -1.8836 87° East 484 557 31,200 3,180 Climbing FlightAware UK
10:00AM 55.7820 -1.7640 86° East 524 603 33,000 600 Climbing FlightAware
10:00AM 55.7828 -1.7548 86° East 482 555 31,500 -4,740 Descending FlightAware UK
10:00AM 55.7862 -1.6770 86° East 482 555 31,500  Level FlightAware UK
10:01AM 55.7929 -1.5221 86° East 482 555 31,500 1,740 Level FlightAware UK
10:01AM 55.7950 -1.4670 86° East 524 603 33,000  Climbing FlightAware
10:01AM 55.7985 -1.3935 86° East 482 555 31,500  Descending FlightAware UK
10:01AM 55.8030 -1.2950 86° East 526 605 33,000  Climbing FlightAware
10:02AM 55.8064 -1.2123 86° East 482 555 31,500  Descending FlightAware UK
10:02AM 55.8110 -1.1010 86° East 525 604 33,000 1,380 Climbing FlightAware
10:03AM 55.8170 -0.9560 86° East 526 605 33,000 -2,400 Level FlightAware
10:03AM 55.8180 -0.9284 86° East 480 552 31,500 -4,320 Descending FlightAware UK
10:03AM 55.8211 -0.8502 86° East 482 555 31,500  Level FlightAware UK
10:03AM 55.8242 -0.7728 86° East 482 555 31,500 3,060 Level FlightAware UK
10:04AM 55.8260 -0.7360 86° East 526 605 33,000  Climbing FlightAware
10:04AM 55.8292 -0.6426 86° East 482 555 31,500 -2,460 Descending FlightAware UK
10:04AM 55.8322 -0.5659 86° East 484 557 31,500 4,500 Level FlightAware UK
10:04AM 55.8320 -0.5720 86° East 527 606 33,000  Climbing FlightAware
10:05AM 55.8351 -0.4874 86° East 482 555 31,500  Descending FlightAware UK
10:05AM 55.8380 -0.3980 86° East 528 608 33,000  Climbing FlightAware
10:05AM 55.8415 -0.3054 86° East 482 555 31,500 -2,520 Descending FlightAware UK
10:06AM 55.8442 -0.2276 86° East 482 555 31,500 3,300 Level FlightAware UK
10:06AM 55.8450 -0.1980 86° East 529 609 33,000  Climbing FlightAware
10:06AM 55.8486 -0.0966 86° East 484 557 31,500 -2,340 Descending FlightAware UK
10:06AM 55.8513 -0.0185 86° East 482 555 31,500 4,680 Level FlightAware UK
10:06AM 55.8510 -0.0340 86° East 529 609 33,000  Climbing FlightAware
10:07AM 55.8546 0.0857 86° East 482 555 31,500  Descending FlightAware UK
10:07AM 55.8560 0.1210 86° East 529 609 33,000  Climbing FlightAware
10:07AM 55.8585 0.2160 86° East 482 555 31,500 -1,920 Descending FlightAware UK
10:08AM 55.8626 0.3461 87° East 482 555 31,500  Level FlightAware UK
10:08AM 55.8671 0.5021 87° East 482 555 31,500  Level FlightAware UK
10:09AM 55.8695 0.5819 87° East 484 557 31,500 2,880 Level FlightAware UK
10:09AM 55.8700 0.6050 87° East 529 609 33,000  Climbing FlightAware
10:09AM 55.8717 0.6600 87° East 482 555 31,500  Descending FlightAware UK
10:10AM 55.8750 0.7830 87° East 529 609 33,000  Climbing FlightAware
10:10AM 55.8795 0.9725 87° East 482 555 31,500  Descending FlightAware UK
10:10AM 55.8810 1.0290 87° East 530 610 33,000  Climbing FlightAware
10:11AM 55.8833 1.1303 87° East 482 555 31,500 -1,500 Descending FlightAware UK
10:11AM 55.8876 1.3135 88° East 482 555 31,500  Level FlightAware UK
10:12AM 55.8891 1.3930 88° East 482 555 31,500  Level FlightAware UK
10:12AM 55.8906 1.4714 88° East 484 557 31,500  Level FlightAware UK
10:13AM 55.8932 1.6018 88° East 482 555 31,500  Level FlightAware UK
10:13AM 55.8948 1.6806 88° East 480 552 31,500  Level FlightAware UK
10:13AM 55.8963 1.7585 88° East 480 552 31,500  Level FlightAware UK
10:13AM 55.8979 1.8365 88° East 482 555 31,500  Level FlightAware UK
10:14AM 55.8992 1.9144 88° East 480 552 31,500  Level FlightAware UK
10:14AM 55.9012 2.0447 88° East 480 552 31,500  Level FlightAware UK
10:15AM 55.9024 2.1229 88° East 484 557 31,500  Level FlightAware UK
10:15AM 55.9039 2.2288 89° East 488 562 31,500  Level FlightAware UK
10:15AM 55.9050 2.3089 89° East 490 564 31,500 3,060 Level FlightAware UK
10:15AM 55.9050 2.3310 89° East 537 618 33,000  Climbing FlightAware
10:16AM 55.9072 2.4687 89° East 490 564 31,500 -2,100 Descending FlightAware UK
10:16AM 55.9081 2.5474 89° East 490 564 31,500 4,500 Level FlightAware UK
10:16AM 55.9080 2.5190 89° East 538 619 33,000  Climbing FlightAware
10:16AM 55.9090 2.6279 89° East 492 566 31,500  Descending FlightAware UK
10:17AM 55.9100 2.6930 89° East 539 620 33,000 1,260 Climbing FlightAware
10:18AM 55.9120 2.8910 89° East 539 620 33,000  Level FlightAware
10:18AM 55.9060 3.0690 93° East 536 617 33,000  Level FlightAware
10:19AM 55.8960 3.2470 96° East 535 616 33,000  Level FlightAware
10:20AM 55.8850 3.4480 95° East 536 617 33,000 -1,380 Level FlightAware
10:20AM 55.8814 3.5796 95° East 492 566 31,500  Descending FlightAware UK
10:20AM 55.8800 3.6400 95° East 534 615 33,000  Climbing FlightAware
10:21AM 55.8765 3.7894 95° East 492 566 31,500  Descending FlightAware UK
10:21AM 55.8750 3.8300 95° East 534 615 33,000  Climbing FlightAware
10:22AM 55.8709 3.9997 95° East 490 564 31,500  Descending FlightAware UK
10:22AM 55.8710 4.0170 95° East 534 615 33,000  Climbing FlightAware
10:22AM 55.8664 4.1582 95° East 490 564 31,500  Descending FlightAware UK
10:23AM 55.8660 4.1850 95° East 533 613 33,000 1,800 Climbing FlightAware
10:23AM 55.8610 4.3360 93° East 533 613 33,000  Level FlightAware
10:24AM 55.8530 4.5750 93° East 534 615 33,000  Level FlightAware
10:25AM 55.8470 4.7380 94° East 533 613 33,000  Level FlightAware
10:25AM 55.8400 4.9260 94° East 532 612 33,000 -1,140 Level FlightAware
10:26AM 55.8325 5.1266 94° East 492 566 31,500  Descending FlightAware UK
10:26AM 55.8330 5.1010 94° East 531 611 33,000  Climbing FlightAware
10:26AM 55.8283 5.2308 94° East 492 566 31,500 -2,340 Descending FlightAware UK
10:27AM 55.8251 5.3091 94° East 492 566 31,500 4,680 Level FlightAware UK
10:27AM 55.8260 5.2910 94° East 531 611 33,000  Climbing FlightAware
10:27AM 55.8218 5.3881 94° East 492 566 31,500 -2,580 Descending FlightAware UK
10:27AM 55.8187 5.4663 94° East 1 1 31,500 3,180 Level FlightAware UK
10:27AM 55.8170 5.4970 94° East 531 611 33,000  Climbing FlightAware
10:28AM 55.8123 5.6223 94° East 1 1 31,500  Descending FlightAware UK
10:28AM 55.8100 5.6670 94° East 533 613 33,000  Climbing FlightAware
10:28AM 55.8067 5.7524 94° East 1 1 31,500  Descending FlightAware UK
10:29AM 55.8030 5.8220 94° East 533 613 33,000 1,260 Climbing FlightAware
10:30AM 55.7930 6.0460 94° East 531 611 33,000 -1,440 Level FlightAware
10:30AM 55.7908 6.1172 94° East 1 1 31,500  Descending FlightAware UK
10:30AM 55.7850 6.2190 94° East 531 611 33,000  Climbing FlightAware
10:30AM 55.7821 6.2992 94° East 1 1 31,500  Descending FlightAware UK
10:31AM 55.7750 6.4070 94° East 532 612 33,000 1,320 Climbing FlightAware
10:32AM 55.7670 6.5820 95° East 531 611 33,000  Level FlightAware
10:32AM 55.7560 6.7800 96° East 530 610 33,000  Level FlightAware
10:33AM 55.7480 6.9310 95° East 531 611 33,000  Level FlightAware
10:34AM 55.7380 7.1170 95° East 527 606 33,000  Level FlightAware
10:34AM 55.7270 7.3170 95° East 523 602 33,000  Level FlightAware
10:35AM 55.7170 7.4790 96° East 521 600 33,000  Level FlightAware
10:36AM 55.7060 7.6720 96° East 523 602 33,000  Level FlightAware
10:37AM 55.6950 7.8500 96° East 525 604 33,000  Level FlightAware
10:37AM 55.6830 8.0450 96° East 528 608 33,000  Level FlightAware
10:38AM 55.6720 8.2090 97° East 529 609 33,000  Level FlightAware
10:39AM 55.6610 8.3880 96° East 526 605 33,000  Level FlightAware
10:39AM 55.6500 8.5510 97° East 521 600 33,000  Level FlightAware
10:40AM 55.6370 8.7380 97° East 518 596 33,000  Level FlightAware
10:41AM 55.6260 8.9020 97° East 519 597 33,000  Level FlightAware
10:41AM 55.6120 9.0960 97° East 521 600 33,000  Level FlightAware
10:42AM 55.5990 9.2630 98° East 520 598 33,000  Level FlightAware
10:43AM 55.5860 9.4490 97° East 519 597 33,000  Level FlightAware
10:44AM 55.5730 9.6190 98° East 519 597 33,000  Level FlightAware
10:44AM 55.5600 9.7850 98° East 517 595 33,000  Level FlightAware
10:45AM 55.5470 9.9550 98° East 510 587 33,000  Level FlightAware
10:46AM 55.5310 10.1480 98° East 514 592 33,000  Level FlightAware
10:46AM 55.5160 10.3300 98° East 515 593 33,000  Level FlightAware
10:47AM 55.5020 10.4960 98° East 517 595 33,000  Level FlightAware
10:48AM 55.4900 10.6430 98° East 513 590 33,000  Level FlightAware
10:48AM 55.4730 10.8360 99° East 510 587 33,000  Level FlightAware
10:49AM 55.4560 11.0270 99° East 510 587 33,000  Level FlightAware
10:50AM 55.4420 11.1860 99° East 510 587 33,000  Level FlightAware
10:50AM 55.4290 11.3310 99° East 509 586 33,000  Level FlightAware
10:51AM 55.4120 11.5220 99° East 509 586 33,000  Level FlightAware
10:52AM 55.3950 11.7010 99° East 510 587 33,000  Level FlightAware
10:53AM 55.3800 11.8560 100° East 514 592 33,000  Level FlightAware
10:53AM 55.3620 12.0490 99° East 515 593 33,000  Level FlightAware
10:54AM 55.3450 12.2130 100° East 512 589 33,000  Level FlightAware
10:55AM 55.3300 12.3730 99° East 511 588 33,000  Level FlightAware
10:55AM 55.3110 12.5600 100° East 512 589 33,000  Level FlightAware
10:56AM 55.2940 12.7220 100° East 512 589 33,000  Level FlightAware
10:57AM 55.2770 12.8870 100° East 511 588 33,000  Level FlightAware
10:58AM 55.2590 13.0600 100° East 506 582 33,000  Level FlightAware
10:58AM 55.2280 13.2080 110° East 466 536 33,000  Level FlightAware
10:59AM 55.1780 13.3570 120° Southeast 470 541 33,000  Level FlightAware
11:00AM 55.1390 13.4840 118° Southeast 471 542 33,000  Level FlightAware
11:00AM 55.0900 13.6360 119° Southeast 466 536 33,000  Level FlightAware
11:01AM 55.0450 13.7670 121° Southeast 467 537 33,000  Level FlightAware
11:02AM 55.0010 13.8950 121° Southeast 467 537 33,000  Level FlightAware
11:02AM 54.9500 14.0460 120° Southeast 468 539 33,000  Level FlightAware
11:03AM 54.9060 14.1730 121° Southeast 467 537 33,000  Level FlightAware
11:04AM 54.8560 14.3160 121° Southeast 468 539 33,000  Level FlightAware
11:05AM 54.8120 14.4410 121° Southeast 469 540 33,000  Level FlightAware
11:05AM 54.7600 14.5880 121° Southeast 470 541 33,000  Level FlightAware
11:06AM 54.7130 14.7200 122° Southeast 472 543 33,000 120 Level FlightAware
11:07AM 54.6700 14.8420 121° Southeast 470 541 33,200 420 Climbing FlightAware
11:07AM 54.6190 14.9830 122° Southeast 473 544 33,600 480 Climbing FlightAware
11:08AM 54.5720 15.1120 122° Southeast 476 548 33,900 420 Climbing FlightAware
11:09AM 54.5260 15.2390 122° Southeast 478 550 34,200 540 Climbing FlightAware
11:09AM 54.4710 15.3910 122° Southeast 479 551 34,700 540 Climbing FlightAware
11:10AM 54.4340 15.4910 122° Southeast 478 550 34,900 240 Climbing FlightAware
11:11AM 54.3900 15.6100 122° Southeast 479 551 35,000 60 Climbing FlightAware
11:11AM 54.3410 15.7300 125° Southeast 476 548 35,000  Level FlightAware
11:12AM 54.2780 15.8780 126° Southeast 476 548 35,000  Level FlightAware
11:13AM 54.2290 15.9960 125° Southeast 476 548 35,000  Level FlightAware
11:13AM 54.1810 16.1110 125° Southeast 478 550 35,000  Level FlightAware
11:14AM 54.1200 16.2590 125° Southeast 475 547 35,000  Level FlightAware
11:15AM 54.0740 16.3690 125° Southeast 472 543 35,000  Level FlightAware
11:15AM 54.0220 16.4910 126° Southeast 471 542 35,000  Level FlightAware
11:16AM 53.9620 16.6320 126° Southeast 471 542 35,000  Level FlightAware
11:17AM 53.9110 16.7510 126° Southeast 472 543 35,000  Level FlightAware
11:18AM 53.8530 16.8840 126° Southeast 474 545 35,000  Level FlightAware
11:18AM 53.7990 17.0090 126° Southeast 477 549 35,000  Level FlightAware
11:19AM 53.7480 17.1280 126° Southeast 479 551 35,000  Level FlightAware
11:20AM 53.6880 17.2650 126° Southeast 480 552 35,000  Level FlightAware
11:20AM 53.6350 17.3860 126° Southeast 481 554 35,000  Level FlightAware
11:21AM 53.5740 17.5220 127° Southeast 481 554 35,000  Level FlightAware
11:22AM 53.5210 17.6410 127° Southeast 480 552 35,000  Level FlightAware
11:22AM 53.4730 17.7490 127° Southeast 478 550 35,000  Level FlightAware
11:23AM 53.4100 17.8900 127° Southeast 473 544 35,000  Level FlightAware
11:24AM 53.3610 18.0000 127° Southeast 469 540 35,000  Level FlightAware
11:25AM 53.3010 18.1310 127° Southeast 471 542 35,000  Level FlightAware
11:25AM 53.2480 18.2470 127° Southeast 471 542 35,000  Level FlightAware
11:26AM 53.1950 18.3630 127° Southeast 472 543 35,000  Level FlightAware
11:27AM 53.1340 18.4960 127° Southeast 473 544 35,000  Level FlightAware
11:27AM 53.0820 18.6110 127° Southeast 472 543 35,000  Level FlightAware
11:28AM 53.0300 18.7210 128° Southeast 472 543 35,000  Level FlightAware
11:29AM 52.9690 18.8530 127° Southeast 472 543 35,000  Level FlightAware
11:30AM 52.9110 18.9770 128° Southeast 474 545 35,000  Level FlightAware
11:30AM 52.8590 19.0890 128° Southeast 474 545 35,000  Level FlightAware
11:31AM 52.8030 19.2070 128° Southeast 475 547 35,000  Level FlightAware
11:32AM 52.7400 19.3390 128° Southeast 478 550 35,000  Level FlightAware
11:32AM 52.6860 19.4510 128° Southeast 480 552 35,000  Level FlightAware
11:33AM 52.6260 19.5780 128° Southeast 479 551 35,000  Level FlightAware
11:34AM 52.5700 19.6930 129° Southeast 479 551 35,000  Level FlightAware
11:34AM 52.5070 19.8240 128° Southeast 481 554 35,000  Level FlightAware
11:35AM 52.4520 19.9370 129° Southeast 483 556 35,000  Level FlightAware
11:36AM 52.3950 20.0530 129° Southeast 485 558 35,000  Level FlightAware
11:37AM 52.3340 20.1780 129° Southeast 485 558 35,000  Level FlightAware
11:37AM 52.2780 20.2920 129° Southeast 484 557 35,000  Level FlightAware
11:38AM 52.2170 20.4150 129° Southeast 482 555 35,000  Level FlightAware
11:39AM 52.1580 20.5330 129° Southeast 479 551 35,000  Level FlightAware
11:39AM 52.1030 20.6430 129° Southeast 479 551 35,000  Level FlightAware
11:40AM 52.0410 20.7670 129° Southeast 477 549 35,000  Level FlightAware
11:41AM 51.9850 20.8770 130° Southeast 476 548 35,000  Level FlightAware
11:41AM 51.9210 21.0040 129° Southeast 478 550 35,000  Level FlightAware
11:42AM 51.8640 21.1160 129° Southeast 482 555 35,000  Level FlightAware
11:43AM 51.8080 21.2250 130° Southeast 482 555 35,000  Level FlightAware
11:44AM 51.7460 21.3460 130° Southeast 483 556 35,000  Level FlightAware
11:44AM 51.6880 21.4570 130° Southeast 482 555 35,000  Level FlightAware
11:45AM 51.6290 21.5710 130° Southeast 480 552 35,000  Level FlightAware
11:46AM 51.5640 21.6970 130° Southeast 478 550 35,000  Level FlightAware
11:46AM 51.5100 21.8000 130° Southeast 477 549 35,000  Level FlightAware
11:47AM 51.4420 21.9280 130° Southeast 476 548 35,000  Level FlightAware
11:48AM 51.3870 22.0340 130° Southeast 476 548 35,000  Level FlightAware
11:48AM 51.3240 22.1530 130° Southeast 478 550 35,000  Level FlightAware
11:49AM 51.2680 22.2570 131° Southeast 480 552 35,000  Level FlightAware
11:50AM 51.2090 22.3660 131° Southeast 482 555 35,000  Level FlightAware
11:51AM 51.1450 22.4860 130° Southeast 480 552 35,000  Level FlightAware
11:51AM 51.0880 22.5930 130° Southeast 475 547 35,000  Level FlightAware
11:52AM 51.0220 22.7130 131° Southeast 472 543 35,000  Level FlightAware
11:53AM 50.9650 22.8180 131° Southeast 468 539 35,000  Level FlightAware
11:53AM 50.9090 22.9210 131° Southeast 467 537 35,000  Level FlightAware
11:54AM 50.8460 23.0340 131° Southeast 467 537 35,000  Level FlightAware
11:55AM 50.7900 23.1360 131° Southeast 469 540 35,000  Level FlightAware
11:55AM 50.7350 23.2350 131° Southeast 471 542 35,000  Level FlightAware
11:56AM 50.6660 23.3610 131° Southeast 476 548 35,000  Level FlightAware
11:57AM 50.6100 23.4600 132° Southeast 481 554 35,000  Level FlightAware
11:58AM 50.5430 23.5790 132° Southeast 484 557 35,000  Level FlightAware
11:58AM 50.4840 23.6840 131° Southeast 483 556 35,000  Level FlightAware
11:59AM 50.4260 23.7860 132° Southeast 484 557 35,000  Level FlightAware
12:00PM 50.3670 23.8880 132° Southeast 482 555 35,000  Level FlightAware
12:00PM 50.2960 23.9990 135° Southeast 482 555 35,000  Level FlightAware
12:01PM 50.2280 24.1050 135° Southeast 482 555 35,000  Level FlightAware
12:02PM 50.1640 24.2070 134° Southeast 482 555 35,000  Level FlightAware
12:02PM 50.0870 24.3280 135° Southeast 483 556 35,000  Level FlightAware
12:03PM 50.0250 24.4240 135° Southeast 483 556 35,000  Level FlightAware
12:04PM 49.9620 24.5230 135° Southeast 482 555 35,000  Level FlightAware
12:05PM 49.8890 24.6370 135° Southeast 482 555 35,000  Level FlightAware
12:05PM 49.8340 24.7220 135° Southeast 482 555 35,000  Level FlightAware
12:06PM 49.7560 24.8420 135° Southeast 482 555 35,000  Level FlightAware
12:07PM 49.6930 24.9390 135° Southeast 481 554 35,000  Level FlightAware
12:07PM 49.6300 25.0340 136° Southeast 481 554 35,000  Level FlightAware
12:08PM 49.5600 25.1410 135° Southeast 482 555 35,000  Level FlightAware
12:09PM 49.4960 25.2370 136° Southeast 482 555 35,000  Level FlightAware
12:09PM 49.4240 25.3450 136° Southeast 484 557 35,000  Level FlightAware
12:10PM 49.3570 25.4440 136° Southeast 483 556 35,000  Level FlightAware
12:11PM 49.2940 25.5370 136° Southeast 483 556 35,000  Level FlightAware
12:12PM 49.2250 25.6400 136° Southeast 485 558 35,000  Level FlightAware
12:12PM 49.1620 25.7340 136° Southeast 486 559 35,000  Level FlightAware
12:13PM 49.0940 25.8330 136° Southeast 487 560 35,000  Level FlightAware
12:14PM 49.0200 25.9430 136° Southeast 483 556 35,000  Level FlightAware
12:14PM 48.9550 26.0370 136° Southeast 482 555 35,000  Level FlightAware
12:15PM 48.8520 26.1870 136° Southeast 485 558 35,000  Level FlightAware
12:16PM 48.7870 26.2820 136° Southeast 486 559 35,000  Level FlightAware
12:17PM 48.6480 26.4810 137° Southeast 484 557 35,000  Level FlightAware
12:18PM 48.5820 26.5750 137° Southeast 480 552 35,000  Level FlightAware
12:19PM 48.5120 26.6750 137° Southeast 481 554 35,000  Level FlightAware
12:20PM 48.4470 26.7670 137° Southeast 482 555 35,000  Level FlightAware
12:20PM 48.3820 26.8600 136° Southeast 483 556 35,000  Level FlightAware
12:21PM 48.3100 26.9660 136° Southeast 485 558 35,000  Level FlightAware
12:22PM 48.2460 27.0590 136° Southeast 485 558 35,000  Level FlightAware
12:22PM 48.1810 27.1540 136° Southeast 484 557 35,000  Level FlightAware
12:23PM 48.1100 27.2560 136° Southeast 484 557 35,000  Level FlightAware
12:24PM 48.0450 27.3490 136° Southeast 483 556 35,000  Level FlightAware
12:24PM 47.9710 27.4550 136° Southeast 480 552 35,000  Level FlightAware
12:25PM 47.9080 27.5450 136° Southeast 482 555 35,000  Level FlightAware
12:26PM 47.8430 27.6360 137° Southeast 481 554 35,000  Level FlightAware
12:27PM 47.7710 27.7380 136° Southeast 480 552 35,000  Level FlightAware
12:27PM 47.7080 27.8270 136° Southeast 481 554 35,000  Level FlightAware
12:28PM 47.6340 27.9320 136° Southeast 481 554 35,000  Level FlightAware
12:29PM 47.5700 28.0210 137° Southeast 479 551 35,000  Level FlightAware
12:29PM 47.5050 28.1110 137° Southeast 479 551 35,000  Level FlightAware
12:30PM 47.4340 28.2100 137° Southeast 478 550 35,000  Level FlightAware
12:31PM 47.3690 28.3000 137° Southeast 478 550 35,000  Level FlightAware
12:31PM 47.2950 28.4020 137° Southeast 478 550 35,000  Level FlightAware
12:32PM 47.2300 28.4910 137° Southeast 480 552 35,000  Level FlightAware
12:33PM 47.1650 28.5800 137° Southeast 479 551 35,000  Level FlightAware
12:34PM 47.0950 28.6750 137° Southeast 475 547 35,000  Level FlightAware
12:34PM 47.0300 28.7630 137° Southeast 474 545 35,000  Level FlightAware
12:35PM 46.9770 28.8360 137° Southeast 474 545 35,000  Level FlightAware
12:36PM 46.9050 28.9330 137° Southeast 474 545 35,000  Level FlightAware
12:36PM 46.8310 29.0390 136° Southeast 471 542 35,000  Level FlightAware
12:37PM 46.7740 29.1210 135° Southeast 472 543 35,000  Level FlightAware
12:38PM 46.7020 29.2220 136° Southeast 471 542 35,000  Level FlightAware
12:38PM 46.6280 29.3250 136° Southeast 470 541 35,000  Level FlightAware
12:39PM 46.5410 29.4460 136° Southeast 468 539 35,000  Level FlightAware
12:40PM 46.4790 29.5320 136° Southeast 467 537 35,000  Level FlightAware
12:41PM 46.4180 29.6170 136° Southeast 468 539 35,000  Level FlightAware
12:41PM 46.3490 29.7110 137° Southeast 469 540 35,000  Level FlightAware
12:42PM 46.2810 29.8000 138° Southeast 470 541 35,000  Level FlightAware
12:45PM 46.1075 30.1304 127° Southeast  Level Estimated
12:45PM 45.9640 30.2140 127° Southeast 470 541 35,000  Level FlightAware
12:46PM 46.0344 30.2685 127° Southeast  Level Estimated
12:46PM 45.8940 30.3050 138° Southeast 470 541 35,000  Level FlightAware
12:47PM 45.8300 30.3870 138° Southeast 470 541 35,000  Level FlightAware
12:48PM 45.7600 30.4760 138° Southeast 470 541 35,000  Level FlightAware
12:48PM 45.6920 30.5640 138° Southeast 469 540 35,000  Level FlightAware
12:49PM 45.6200 30.6560 138° Southeast 469 540 35,000  Level FlightAware
12:50PM 45.5560 30.7370 138° Southeast 469 540 35,000  Level FlightAware
12:50PM 45.4820 30.8300 139° Southeast 466 536 35,000  Level FlightAware
12:51PM 45.4190 30.9100 138° Southeast 466 536 35,000  Level FlightAware
12:52PM 45.3530 30.9930 139° Southeast 466 536 35,000  Level FlightAware
12:52PM 45.2830 31.0810 138° Southeast 466 536 35,000  Level FlightAware
12:53PM 45.2170 31.1640 138° Southeast 465 535 35,000  Level FlightAware
12:54PM 45.1620 31.2360 137° Southeast 466 536 35,000  Level FlightAware
12:55PM 45.0830 31.3370 138° Southeast 470 541 35,000  Level FlightAware
12:55PM 45.0190 31.4200 137° Southeast 473 544 35,000  Level FlightAware
12:56PM 44.9440 31.5150 138° Southeast 472 543 35,000  Level FlightAware
12:57PM 44.8780 31.5980 138° Southeast 475 547 35,000  Level FlightAware
12:57PM 44.8170 31.6750 138° Southeast 477 549 35,000  Level FlightAware
12:58PM 44.7520 31.7580 138° Southeast 476 548 35,000  Level FlightAware
12:59PM 44.6740 31.8560 138° Southeast 478 550 35,000  Level FlightAware
12:59PM 44.6000 31.9490 138° Southeast 480 552 35,000  Level FlightAware
01:00PM 44.5340 32.0310 138° Southeast 480 552 35,000  Level FlightAware
01:01PM 44.4580 32.1220 139° Southeast 481 554 35,000  Level FlightAware
01:02PM 44.3890 32.2040 140° Southeast 482 555 35,000  Level FlightAware
01:02PM 44.3210 32.2840 140° Southeast 483 556 35,000  Level FlightAware
01:03PM 44.2530 32.3640 140° Southeast 485 558 35,000  Level FlightAware
01:04PM 44.1770 32.4540 140° Southeast 484 557 35,000  Level FlightAware
01:04PM 44.1000 32.5450 140° Southeast 486 559 35,000  Level FlightAware
01:05PM 44.0420 32.6150 139° Southeast 486 559 35,000  Level FlightAware
01:06PM 43.9640 32.7090 139° Southeast 486 559 35,000  Level FlightAware
01:06PM 43.8950 32.7920 139° Southeast 487 560 35,000  Level FlightAware
01:07PM 43.8190 32.8830 139° Southeast 488 562 35,000  Level FlightAware
01:08PM 43.7510 32.9630 140° Southeast 488 562 35,000  Level FlightAware
01:09PM 43.6750 33.0540 139° Southeast 485 558 35,000  Level FlightAware
01:09PM 43.6070 33.1340 140° Southeast 482 555 35,000  Level FlightAware
01:10PM 43.5300 33.2240 140° Southeast 479 551 35,000  Level FlightAware
01:11PM 43.4620 33.3040 139° Southeast 478 550 35,000  Level FlightAware
01:11PM 43.3870 33.3920 140° Southeast 476 548 35,000  Level FlightAware
01:12PM 43.3200 33.4690 140° Southeast 477 549 35,000  Level FlightAware
01:13PM 43.2530 33.5470 140° Southeast 478 550 35,000  Level FlightAware
01:13PM 43.1760 33.6350 140° Southeast 478 550 35,000  Level FlightAware
01:14PM 43.1100 33.7110 140° Southeast 475 547 35,000  Level FlightAware
01:15PM 43.0340 33.7990 140° Southeast 474 545 35,000  Level FlightAware
01:16PM 42.9670 33.8760 140° Southeast 473 544 35,000  Level FlightAware
01:16PM 42.9030 33.9490 140° Southeast 474 545 35,000  Level FlightAware
01:17PM 42.8240 34.0390 140° Southeast 474 545 35,000  Level FlightAware
01:18PM 42.7580 34.1180 139° Southeast 473 544 35,000  Level FlightAware
01:18PM 42.6840 34.1980 142° Southeast 471 542 35,000  Level FlightAware
01:19PM 42.6090 34.2720 144° Southeast 471 542 35,000 1,020 Level FlightAware
01:20PM 42.5340 34.3800 133° Southeast 485 558 36,600 1,380 Climbing FlightAware
01:21PM 42.4770 34.4950 124° Southeast 488 562 37,000 300 Climbing FlightAware
01:21PM 42.4390 34.5740 123° Southeast 488 562 37,000  Level FlightAware
01:22PM 42.3870 34.6830 123° Southeast 488 562 37,000  Level FlightAware
01:23PM 42.3450 34.7700 123° Southeast 488 562 37,000  Level FlightAware
01:23PM 42.3030 34.8570 123° Southeast 488 562 37,000  Level FlightAware
01:24PM 42.2610 34.9440 123° Southeast 488 562 37,000  Level FlightAware
01:25PM 42.2200 35.0310 122° Southeast 488 562 37,000  Level FlightAware
01:25PM 42.1780 35.1180 123° Southeast 488 562 37,000  Level FlightAware
01:26PM 42.1260 35.2270 123° Southeast 488 562 37,000  Level FlightAware
01:27PM 42.0840 35.3130 123° Southeast 488 562 37,000  Level FlightAware
01:28PM 42.0420 35.4000 123° Southeast 488 562 37,000  Level FlightAware
01:28PM 42.0000 35.4870 123° Southeast 488 562 37,000  Level FlightAware
01:29PM 41.9580 35.5730 123° Southeast 488 562 37,000  Level FlightAware
01:30PM 41.9060 35.6810 123° Southeast 488 562 37,000  Level FlightAware
01:30PM 41.8640 35.7680 123° Southeast 488 562 37,000  Level FlightAware
01:33PM 41.7063 36.0229 130° Southeast  Level Estimated
01:34PM 41.6292 36.1468 130° Southeast  Level Estimated
01:35PM 41.5519 36.2704 130° Southeast  Level Estimated
01:36PM 41.4746 36.3937 130° Southeast  Level Estimated
01:37PM 41.3970 36.5167 130° Southeast  Level Estimated
01:38PM 41.3194 36.6394 130° Southeast  Level Estimated
01:39PM 41.2416 36.7618 130° Southeast  Level Estimated
01:40PM 41.1637 36.8840 130° Southeast  Level Estimated
01:41PM 41.0857 37.0058 130° Southeast  Level Estimated
01:42PM 41.0075 37.1274 130° Southeast  Level Estimated
01:43PM 40.9292 37.2486 130° Southeast  Level Estimated
01:44PM 40.8508 37.3696 131° Southeast  Level Estimated
01:45PM 40.7723 37.4903 131° Southeast  Level Estimated
01:46PM 40.6936 37.6107 131° Southeast  Level Estimated
01:47PM 40.6148 37.7308 131° Southeast  Level Estimated
01:48PM 40.5359 37.8506 131° Southeast  Level Estimated
01:49PM 40.4568 37.9702 131° Southeast  Level Estimated
01:50PM 40.3777 38.0895 131° Southeast  Level Estimated
01:51PM 40.2984 38.2085 131° Southeast  Level Estimated
01:52PM 40.2190 38.3272 131° Southeast  Level Estimated
01:53PM 40.1394 38.4456 131° Southeast  Level Estimated
01:54PM 40.0598 38.5638 131° Southeast  Level Estimated
01:55PM 39.9800 38.6816 131° Southeast  Level Estimated
01:56PM 39.9001 38.7992 132° Southeast  Level Estimated
01:57PM 39.8201 38.9166 132° Southeast  Level Estimated
01:58PM 39.7400 39.0336 132° Southeast  Level Estimated
01:59PM 39.6598 39.1504 132° Southeast  Level Estimated
02:00PM 39.5794 39.2669 132° Southeast  Level Estimated
02:01PM 39.4989 39.3832 132° Southeast  Level Estimated
02:02PM 39.4183 39.4992 132° Southeast  Level Estimated
02:03PM 39.3376 39.6149 132° Southeast  Level Estimated
02:04PM 39.2568 39.7303 132° Southeast  Level Estimated
02:05PM 39.1759 39.8455 132° Southeast  Level Estimated
02:06PM 39.0948 39.9604 132° Southeast  Level Estimated
02:07PM 39.0136 40.0751 132° Southeast  Level Estimated
02:08PM 38.9324 40.1894 132° Southeast  Level Estimated
02:09PM 38.8510 40.3036 132° Southeast  Level Estimated
02:10PM 38.7695 40.4174 133° Southeast  Level Estimated
02:11PM 38.6879 40.5310 133° Southeast  Level Estimated
02:12PM 38.6062 40.6444 133° Southeast  Level Estimated
02:13PM 38.5244 40.7574 133° Southeast  Level Estimated
02:13PM 38.3080 41.9000 133° Southeast 508 585 37,000  Level FlightAware
02:14PM 38.4425 40.8703 133° Southeast  Level Estimated
02:14PM 38.2540 41.9940 126° Southeast 508 585 37,000  Level FlightAware
02:15PM 38.1830 42.1120 127° Southeast 504 580 37,000  Level FlightAware
02:15PM 38.1190 42.2210 127° Southeast 503 579 37,000  Level FlightAware
02:16PM 38.0640 42.3150 127° Southeast 504 580 37,000  Level FlightAware
02:17PM 38.0070 42.4110 127° Southeast 502 578 37,000  Level FlightAware
02:17PM 37.9450 42.5160 127° Southeast 503 579 37,000  Level FlightAware
02:18PM 37.8890 42.6100 127° Southeast 504 580 37,000  Level FlightAware
02:19PM 37.8260 42.6970 132° Southeast 496 571 37,000  Level FlightAware
02:19PM 37.7470 42.7830 139° Southeast 496 571 37,000  Level FlightAware
02:20PM 37.6780 42.8590 139° Southeast 494 568 37,000  Level FlightAware
02:21PM 37.6010 42.9430 139° Southeast 494 568 37,000  Level FlightAware
02:21PM 37.5600 42.9890 138° Southeast 494 568 37,000  Level FlightAware
02:22PM 37.4880 43.0660 140° Southeast 493 567 37,000  Level FlightAware
02:23PM 37.4120 43.1500 139° Southeast 494 568 37,000  Level FlightAware
02:23PM 37.3400 43.2180 143° Southeast 487 560 37,000  Level FlightAware
02:24PM 37.2600 43.2690 153° Southeast 481 554 37,000  Level FlightAware
02:25PM 37.1700 43.3190 156° South 482 555 37,000  Level FlightAware
02:25PM 37.0890 43.3640 156° South 486 559 37,000  Level FlightAware
02:26PM 36.9920 43.4180 156° South 491 565 37,000  Level FlightAware
02:27PM 36.9090 43.4650 156° South 489 563 37,000  Level FlightAware
02:27PM 36.8490 43.4980 156° South 487 560 37,000  Level FlightAware
02:28PM 36.7660 43.5450 156° South 490 564 37,000  Level FlightAware
02:29PM 36.6710 43.5960 157° South 487 560 37,000  Level FlightAware
02:29PM 36.5910 43.6370 158° South 483 556 37,000  Level FlightAware
02:30PM 36.4970 43.6850 158° South 480 552 37,000  Level FlightAware
02:31PM 36.4150 43.7280 157° South 480 552 37,000  Level FlightAware
02:32PM 36.3250 43.7750 157° South 484 557 37,000  Level FlightAware
02:32PM 36.2700 43.8030 158° South 487 560 37,000  Level FlightAware
02:33PM 36.1770 43.8530 157° South 487 560 37,000  Level FlightAware
02:33PM 36.0930 43.8970 157° South 489 563 37,000  Level FlightAware
02:34PM 36.0130 43.9390 157° South 487 560 37,000  Level FlightAware
02:35PM 35.9510 43.9710 157° South 487 560 37,000  Level FlightAware
02:35PM 35.8550 44.0210 157° South 486 559 37,000  Level FlightAware
02:36PM 35.7740 44.0700 154° Southeast 490 564 37,000  Level FlightAware
02:37PM 35.6930 44.1240 152° Southeast 491 565 37,000  Level FlightAware
02:37PM 35.6050 44.1850 151° Southeast 490 564 37,000  Level FlightAware
02:38PM 35.5260 44.2400 150° Southeast 489 563 37,000  Level FlightAware
02:39PM 35.4490 44.2940 150° Southeast 490 564 37,000  Level FlightAware
02:40PM 35.3600 44.3550 151° Southeast 490 564 37,000  Level FlightAware
02:40PM 35.2810 44.4090 151° Southeast 489 563 37,000  Level FlightAware
02:41PM 35.2010 44.4630 151° Southeast 487 560 37,000  Level FlightAware
02:42PM 35.1140 44.5230 151° Southeast 487 560 37,000  Level FlightAware
02:42PM 35.0250 44.5830 151° Southeast 488 562 37,000  Level FlightAware
02:43PM 34.9440 44.6380 151° Southeast 487 560 37,000  Level FlightAware
02:44PM 34.8650 44.6910 151° Southeast 488 562 37,000  Level FlightAware
02:44PM 34.7780 44.7500 151° Southeast 490 564 37,000  Level FlightAware
02:45PM 34.7070 44.7980 151° Southeast 491 565 37,000  Level FlightAware
02:46PM 34.6070 44.8650 151° Southeast 492 566 37,000  Level FlightAware
02:46PM 34.5390 44.9110 151° Southeast 492 566 37,000  Level FlightAware
02:47PM 34.4480 44.9710 151° Southeast 493 567 37,000  Level FlightAware
02:48PM 34.3760 45.0200 151° Southeast 493 567 37,000  Level FlightAware
02:49PM 34.3080 45.0650 151° Southeast 493 567 37,000  Level FlightAware
02:49PM 34.2400 45.1110 151° Southeast 493 567 37,000  Level FlightAware
02:50PM 34.1560 45.1670 151° Southeast 493 567 37,000  Level FlightAware
02:51PM 34.0880 45.2130 151° Southeast 493 567 37,000  Level FlightAware
02:52PM 33.9230 45.3200 152° Southeast 498 573 37,000  Level FlightAware
02:52PM 33.8480 45.3690 152° Southeast 499 574 37,000  Level FlightAware
02:53PM 33.7600 45.4270 151° Southeast 499 574 37,000  Level FlightAware
02:54PM 33.6910 45.4730 151° Southeast 499 574 37,000  Level FlightAware
02:55PM 33.5480 45.5660 152° Southeast 501 577 37,000  Level FlightAware
02:55PM 33.4790 45.6110 151° Southeast 501 577 37,000  Level FlightAware
02:56PM 33.4100 45.6570 151° Southeast 501 577 37,000  Level FlightAware
02:57PM 33.3410 45.7030 151° Southeast 501 577 37,000  Level FlightAware
02:57PM 33.2720 45.7490 151° Southeast 501 577 37,000  Level FlightAware
02:58PM 33.2030 45.7940 151° Southeast 501 577 37,000  Level FlightAware
02:59PM 33.1170 45.8510 151° Southeast 501 577 37,000  Level FlightAware
03:00PM 33.0480 45.8970 151° Southeast 501 577 37,000  Level FlightAware
03:00PM 32.9790 45.9430 151° Southeast 501 577 37,000  Level FlightAware
03:01PM 32.9100 45.9880 151° Southeast 501 577 37,000  Level FlightAware
03:02PM 32.8240 46.0450 151° Southeast 501 577 37,000  Level FlightAware
03:02PM 32.7550 46.0900 151° Southeast 501 577 37,000  Level FlightAware
03:03PM 32.6860 46.1360 151° Southeast 501 577 37,000  Level FlightAware
03:04PM 32.6170 46.1810 151° Southeast 501 577 37,000  Level FlightAware
03:06PM 32.4769 46.3774 130° Southeast  Level Estimated
03:07PM 32.3990 46.4862 130° Southeast  Level Estimated
03:08PM 32.3210 46.5949 130° Southeast  Level Estimated
03:09PM 32.2428 46.7034 130° Southeast  Level Estimated
03:10PM 32.1646 46.8116 130° Southeast  Level Estimated
03:11PM 32.0863 46.9197 131° Southeast  Level Estimated
03:12PM 32.0079 47.0276 131° Southeast  Level Estimated
03:13PM 31.9294 47.1353 131° Southeast  Level Estimated
03:14PM 31.8508 47.2429 131° Southeast  Level Estimated
03:15PM 31.7721 47.3503 131° Southeast  Level Estimated
03:16PM 31.6934 47.4574 131° Southeast  Level Estimated
03:17PM 31.6145 47.5644 131° Southeast  Level Estimated
03:18PM 31.5355 47.6712 131° Southeast  Level Estimated
03:18PM 30.7980 47.5430 131° Southeast 533 613 37,000  Level FlightAware
03:19PM 30.7120 47.6330 138° Southeast 533 613 37,000  Level FlightAware
03:19PM 30.6380 47.7100 138° Southeast 533 613 37,000  Level FlightAware
03:20PM 30.5690 47.7820 138° Southeast 533 613 37,000  Level FlightAware
03:21PM 30.4440 47.9120 138° Southeast 536 617 37,000  Level FlightAware
03:22PM 30.3200 48.0410 138° Southeast 537 618 37,000  Level FlightAware
03:23PM 30.2280 48.1340 139° Southeast 539 620 37,000  Level FlightAware
03:24PM 30.1480 48.2170 138° Southeast 539 620 37,000  Level FlightAware
03:24PM 30.0850 48.2830 138° Southeast 539 620 37,000  Level FlightAware
03:25PM 29.9470 48.4220 139° Southeast 541 623 37,000  Level FlightAware
03:26PM 29.8700 48.4930 141° Southeast 529 609 37,000  Level FlightAware
03:27PM 29.7420 48.5740 151° Southeast 516 594 37,000  Level FlightAware
03:28PM 29.6350 48.6380 153° Southeast 521 600 37,000  Level FlightAware
03:29PM 29.5440 48.7030 148° Southeast 529 609 37,000  Level FlightAware
03:30PM 29.4300 48.7940 145° Southeast 531 611 37,000  Level FlightAware
03:30PM 29.3840 48.8310 145° Southeast 530 610 37,000  Level FlightAware
03:31PM 29.2710 48.9220 145° Southeast 530 610 37,000  Level FlightAware
03:32PM 29.1740 49.0020 144° Southeast 530 610 37,000  Level FlightAware
03:33PM 29.1060 49.0580 144° Southeast 530 610 37,000  Level FlightAware
03:33PM 29.0020 49.1390 146° Southeast 532 612 37,000  Level FlightAware
03:34PM 28.9210 49.2070 144° Southeast 532 612 37,000  Level FlightAware
03:35PM 28.8530 49.2630 144° Southeast 532 612 37,000  Level FlightAware
03:35PM 28.7850 49.3190 144° Southeast 532 612 37,000  Level FlightAware
03:36PM 28.7180 49.3750 144° Southeast 532 612 37,000  Level FlightAware
03:37PM 28.6500 49.4310 144° Southeast 532 612 37,000  Level FlightAware
03:38PM 28.5650 49.5010 144° Southeast 532 612 37,000  Level FlightAware
03:38PM 28.4980 49.5570 144° Southeast 532 612 37,000  Level FlightAware
03:39PM 28.4300 49.6130 144° Southeast 532 612 37,000  Level FlightAware
03:40PM 28.3620 49.6690 144° Southeast 532 612 37,000  Level FlightAware
03:40PM 28.2780 49.7390 144° Southeast 532 612 37,000  Level FlightAware
03:41PM 28.2100 49.7950 144° Southeast 532 612 37,000  Level FlightAware
03:42PM 28.1420 49.8510 144° Southeast 532 612 37,000  Level FlightAware
03:42PM 28.0750 49.9070 144° Southeast 532 612 37,000  Level FlightAware
03:43PM 28.0070 49.9620 144° Southeast 532 612 37,000  Level FlightAware
03:46PM 27.8699 50.2476 118° Southeast  Level Estimated
03:47PM 27.8123 50.3672 119° Southeast  Level Estimated
03:48PM 27.7545 50.4867 119° Southeast  Level Estimated
03:49PM 27.6966 50.6060 119° Southeast  Level Estimated
03:50PM 27.6386 50.7253 119° Southeast  Level Estimated
03:51PM 27.5805 50.8443 119° Southeast  Level Estimated
03:51PM 26.8930 51.0000 119° Southeast 540 621 37,000  Level FlightAware
03:52PM 26.8510 51.1160 112° Southeast 537 618 37,000  Level FlightAware
03:53PM 26.8140 51.2140 113° Southeast 535 616 37,000  Level FlightAware
03:54PM 26.7550 51.3590 114° Southeast 532 612 37,000  Level FlightAware
03:54PM 26.7080 51.4680 116° Southeast 536 617 37,000  Level FlightAware
03:55PM 26.6760 51.5420 116° Southeast 536 617 37,000  Level FlightAware
03:56PM 26.6350 51.6390 115° Southeast 535 616 37,000  Level FlightAware
03:56PM 26.5900 51.7470 115° Southeast 536 617 37,000  Level FlightAware
03:57PM 26.5500 51.8430 115° Southeast 536 617 37,000  Level FlightAware
03:58PM 26.5060 51.9480 115° Southeast 538 619 37,000  Level FlightAware
03:58PM 26.4600 52.0560 115° Southeast 538 619 37,000  Level FlightAware
03:59PM 26.4120 52.1700 115° Southeast 537 618 37,000  Level FlightAware
04:00PM 26.3690 52.2690 116° Southeast 537 618 37,000  Level FlightAware
04:01PM 26.3190 52.3880 115° Southeast 536 617 37,000  Level FlightAware
04:01PM 26.2660 52.5100 116° Southeast 535 616 37,000  Level FlightAware
04:02PM 26.2320 52.5890 116° Southeast 535 616 37,000  Level FlightAware
04:03PM 26.1910 52.6890 115° Southeast 535 616 37,000 -1,980 Level FlightAware
04:03PM 26.1390 52.8070 116° Southeast 540 621 34,200 -3,900 Descending FlightAware
04:04PM 26.0830 52.9360 116° Southeast 560 644 31,200 -3,180 Descending FlightAware
04:05PM 26.0380 53.0400 116° Southeast 557 641 29,500 -2,340 Descending FlightAware
04:05PM 26.0010 53.1250 116° Southeast 562 647 28,300 -1,080 Descending FlightAware
04:06PM 25.9410 53.2620 116° Southeast 562 647 28,000 -420 Descending FlightAware
04:07PM 25.8980 53.3680 114° Southeast 545 627 27,700 -360 Descending FlightAware
04:08PM 25.8510 53.5110 110° East 531 611 27,400 -180 Descending FlightAware
04:09PM 25.8240 53.5990 109° East 531 611 27,400  Level FlightAware
04:09PM 25.7970 53.6870 109° East 531 611 27,400  Level FlightAware
04:10PM 25.7700 53.7740 109° East 531 611 27,400  Level FlightAware
04:11PM 25.7430 53.8620 109° East 531 611 27,400  Level FlightAware
04:11PM 25.7150 53.9500 109° East 531 611 27,400 -720 Level FlightAware
04:14PM 25.6255 54.2292 110° East  Level Estimated
04:15PM 25.5850 54.3550 110° East  Level Estimated
04:16PM 25.5444 54.4807 110° East  Level Estimated
04:17PM 25.5037 54.6063 110° East  Level Estimated
04:18PM 25.4628 54.7319 110° East  Level Estimated
04:19PM 25.4219 54.8573 110° East  Level Estimated
04:20PM 25.3808 54.9827 110° East  Level Estimated
04:21PM 25.3396 55.1080 110° East  Level Estimated
04:22PM 25.2983 55.2332 110° East  Level Estimated
04:23PM 25.2570 55.3583 110° East  Level Estimated
04:24PM 25.2550 55.3643 110° East  Level Estimated
04:25PM 25.2550 55.3643 211° Southwest  Level Estimated
04:26PM 25.2550 55.3643 211° Southwest  Level Estimated
04:27PM 25.2550 55.3643 211° Southwest  Level Estimated
04:28PM 25.2550 55.3643 211° Southwest  Level Estimated
04:29PM 25.2550 55.3643 211° Southwest  Level Estimated
04:30PM 25.2550 55.3643 211° Southwest  Level Estimated
04:31PM 25.2550 55.3643 211° Southwest  Level Estimated
04:32PM 25.2550 55.3643 211° Southwest  Level Estimated
04:33PM 25.2550 55.3643 211° Southwest  Level Estimated
04:34PM 25.2550 55.3643 211° Southwest  Level Estimated
04:35PM 25.2550 55.3643 211° Southwest  Level Estimated
04:36PM 25.2550 55.3643 211° Southwest  Level Estimated
04:37PM 25.2550 55.3643 211° Southwest  Level Estimated
04:38PM 25.2550 55.3643 211° Southwest  Level Estimated
04:38PM 25.3940 55.2580 211° Southwest 259 298 8,200  Level FlightAware
04:39PM 25.2550 55.3643 211° Southwest  Level Estimated
04:39PM 25.3840 55.2770 120° Southeast 258 297 8,200  Level FlightAware
04:39PM 25.3630 55.3130 123° Southeast 261 300 8,200  Level FlightAware
04:40PM 25.3490 55.3380 122° Southeast 259 298 8,200  Level FlightAware
04:41PM 25.3010 55.4270 121° Southeast 259 298 8,200  Level FlightAware
04:41PM 25.2960 55.4370 119° Southeast 259 298 8,200  Level FlightAware
04:42PM 25.2850 55.4560 123° Southeast 259 298 8,200 -600 Level FlightAware
04:44PM 25.2550 55.3643 250° West  Level Estimated
04:45PM 25.2550 55.3643 211° Southwest  Level Estimated
04:46PM 25.2550 55.3643 211° Southwest  Level Estimated
04:47PM 25.2550 55.3643 211° Southwest  Level Estimated
04:48PM 25.2550 55.3643 211° Southwest  Level Estimated
04:49PM 25.2550 55.3643 211° Southwest  Level Estimated
04:50PM 25.2550 55.3643 211° Southwest  Level Estimated
04:51PM 25.2550 55.3643 211° Southwest  Level Estimated
04:52PM 25.2550 55.3643 211° Southwest  Level Estimated
04:53PM 25.2550 55.3643 211° Southwest  Level Estimated
04:54PM 25.2550 55.3643 211° Southwest  Level Estimated
04:55PM 25.2370 55.3920 301° West 156 180 200  Level FlightAware
04:55PM 25.2380 55.3910 318° Northwest 158 182 200  Level FlightAware
05:01PM 25.2550 55.3643 45° Northeast  Level Estimated
05:02PM 25.2550 55.3643 211° Southwest  Level Estimated
05:03PM 25.2550 55.3643 211° Southwest  Level Estimated
05:04PM 25.2550 55.3643 211° Southwest  Level Estimated